createdAt,value
2023-01-23T00:08:35.907Z,9.10
2023-01-23T00:18:40.149Z,8.20
2023-01-23T00:28:45.560Z,8.30
2023-01-23T00:38:49.797Z,7.90
2023-01-23T00:48:53.506Z,9.10
2023-01-23T00:58:58.343Z,8.40
2023-01-23T01:09:02.735Z,9.10
2023-01-23T01:19:06.583Z,7.90
2023-01-23T01:29:10.247Z,7.80
2023-01-23T01:39:13.897Z,8.10
2023-01-23T01:49:33.733Z,7.80
2023-01-23T02:00:11.093Z,8.20
2023-01-23T02:10:18.451Z,8.60
2023-01-23T02:20:28.973Z,8.70
2023-01-23T02:30:32.893Z,8.70
2023-01-23T02:40:42.491Z,7.90
2023-01-23T02:50:48.969Z,11.60
2023-01-23T03:00:52.845Z,14.30
2023-01-23T03:11:01.731Z,11.40
2023-01-23T03:21:08.087Z,9.90
2023-01-23T03:32:24.792Z,9.40
2023-01-23T03:42:34.981Z,8.10
2023-01-23T03:52:39.969Z,12.70
2023-01-23T04:02:46.972Z,14.10
2023-01-23T04:12:51.536Z,9.10
2023-01-23T04:22:55.594Z,8.60
2023-01-23T04:33:00.936Z,9.70
2023-01-23T04:43:08.579Z,28.00
2023-01-23T04:53:17.903Z,13.70
2023-01-23T05:03:22.708Z,9.20
2023-01-23T05:13:27.998Z,10.90
2023-01-23T05:23:31.918Z,10.70
2023-01-23T05:33:35.969Z,17.00
2023-01-23T05:43:41.968Z,17.10
2023-01-23T05:54:08.265Z,12.10
2023-01-23T06:04:16.430Z,15.50
2023-01-23T06:14:31.737Z,13.80
2023-01-23T06:24:35.785Z,23.20
2023-01-23T06:34:39.967Z,18.00
2023-01-23T06:44:48.199Z,14.60
2023-01-23T06:54:52.143Z,24.90
2023-01-23T07:04:56.462Z,13.70
2023-01-23T07:15:00.250Z,28.90
2023-01-23T07:25:12.347Z,14.60
2023-01-23T07:35:16.061Z,13.50
2023-01-23T07:45:19.810Z,20.50
2023-01-23T07:55:25.503Z,16.30
2023-01-23T08:05:30.534Z,37.80
2023-01-23T08:15:34.235Z,20.90
2023-01-23T08:25:39.523Z,19.00
2023-01-23T08:35:51.068Z,17.10
2023-01-23T08:45:59.555Z,12.50
2023-01-23T08:56:07.834Z,14.90
2023-01-23T09:06:13.071Z,16.30
2023-01-23T09:16:17.559Z,12.50
2023-01-23T09:26:21.342Z,13.40
2023-01-23T09:36:41.700Z,10.50
2023-01-23T09:46:55.380Z,12.30
2023-01-23T09:57:08.497Z,11.10
2023-01-23T10:07:28.811Z,14.60
2023-01-23T10:18:00.294Z,11.40
2023-01-23T10:28:22.855Z,11.90
2023-01-23T10:38:49.147Z,11.00
2023-01-23T11:00:02.615Z,13.00
2023-01-23T11:10:12.464Z,14.40
2023-01-23T11:20:32.289Z,13.90
2023-01-23T11:30:50.342Z,16.80
2023-01-23T11:40:54.057Z,14.20
2023-01-23T11:51:16.564Z,11.90
2023-01-23T12:01:32.524Z,13.60
2023-01-23T12:12:02.383Z,11.40
2023-01-23T12:22:16.613Z,12.30
2023-01-23T12:32:54.662Z,10.00
2023-01-23T12:43:14.768Z,10.30
2023-01-23T12:53:25.025Z,10.30
2023-01-23T13:03:46.619Z,11.80
2023-01-23T13:13:52.659Z,13.30
2023-01-23T13:24:47.005Z,15.00
2023-01-23T13:34:51.055Z,12.50
2023-01-23T13:45:21.459Z,14.50
2023-01-23T14:26:51.795Z,15.80
2023-01-23T14:37:04.740Z,21.30
2023-01-23T14:47:18.495Z,18.90
2023-01-23T14:57:24.639Z,18.20
2023-01-23T15:07:28.317Z,26.40
2023-01-23T15:17:33.477Z,21.70
2023-01-23T15:27:39.858Z,18.30
2023-01-23T15:37:49.880Z,20.70
2023-01-23T15:47:53.586Z,19.10
2023-01-23T15:57:57.262Z,19.80
2023-01-23T16:08:03.070Z,22.30
2023-01-23T16:18:06.892Z,23.10
2023-01-23T16:28:21.867Z,17.90
2023-01-23T16:38:30.333Z,18.10
2023-01-23T16:48:35.088Z,19.70
2023-01-23T16:58:41.273Z,24.60
2023-01-23T17:08:45.069Z,17.90
2023-01-23T17:18:50.568Z,23.20
2023-01-23T17:28:57.316Z,21.10
2023-01-23T17:39:01.923Z,17.90
2023-01-23T17:49:31.244Z,21.10
2023-01-23T17:59:35.064Z,28.70
2023-01-23T18:09:38.956Z,33.80
2023-01-23T18:19:43.327Z,28.50
2023-01-23T18:30:30.350Z,22.10
2023-01-23T18:41:10.821Z,23.10
2023-01-23T18:51:24.844Z,23.30
2023-01-23T19:01:40.985Z,24.40
2023-01-23T19:12:07.599Z,38.60
2023-01-23T19:22:17.748Z,21.90
2023-01-23T19:32:21.931Z,23.20
2023-01-23T19:42:35.916Z,25.80
2023-01-23T19:52:44.315Z,21.90
2023-01-23T20:02:48.289Z,20.60
2023-01-23T20:12:52.777Z,29.00
2023-01-23T20:22:56.573Z,24.00
2023-01-23T20:33:02.546Z,25.20
2023-01-23T20:43:06.456Z,21.80
2023-01-23T20:53:30.320Z,20.50
2023-01-23T21:03:39.200Z,21.80
2023-01-23T21:13:54.065Z,19.90
2023-01-23T21:23:57.816Z,20.80
2023-01-23T21:34:10.018Z,18.50
2023-01-23T21:44:14.292Z,28.50
2023-01-23T21:54:20.323Z,29.60
2023-01-23T22:04:24.223Z,25.80
2023-01-23T22:14:30.973Z,27.30
2023-01-23T22:24:34.545Z,20.00
2023-01-23T22:34:38.263Z,17.50
2023-01-23T22:44:43.525Z,19.20
2023-01-23T22:54:47.102Z,21.10
2023-01-23T23:04:51.895Z,21.10
2023-01-23T23:14:57.575Z,20.30
2023-01-23T23:25:01.143Z,20.50
2023-01-23T23:35:05.166Z,20.50
2023-01-23T23:45:09.361Z,25.20
2023-01-23T23:55:13.203Z,18.20
